sensor_id;sensor_type;location;lat;lon;timestamp;P1;durP1;ratioP1;P2;durP2;ratioP2
42332;SDS011;27984;51.476;5.702;2024-02-21T00:01:18;27.73;;;9.43;;
42332;SDS011;27984;51.476;5.702;2024-02-21T00:03:45;22.77;;;9.60;;
42332;SDS011;27984;51.476;5.702;2024-02-21T00:06:11;24.13;;;9.07;;
42332;SDS011;27984;51.476;5.702;2024-02-21T00:08:37;31.55;;;10.10;;
42332;SDS011;27984;51.476;5.702;2024-02-21T00:11:03;28.92;;;9.02;;
42332;SDS011;27984;51.476;5.702;2024-02-21T00:13:29;25.52;;;8.88;;
42332;SDS011;27984;51.476;5.702;2024-02-21T00:15:55;23.83;;;9.07;;
42332;SDS011;27984;51.476;5.702;2024-02-21T00:18:21;28.77;;;9.10;;
42332;SDS011;27984;51.476;5.702;2024-02-21T00:20:47;31.83;;;9.52;;
42332;SDS011;27984;51.476;5.702;2024-02-21T00:23:13;24.33;;;9.00;;
42332;SDS011;27984;51.476;5.702;2024-02-21T00:25:39;25.08;;;9.10;;
42332;SDS011;27984;51.476;5.702;2024-02-21T00:28:05;27.48;;;9.63;;
42332;SDS011;27984;51.476;5.702;2024-02-21T00:30:31;32.55;;;9.70;;
42332;SDS011;27984;51.476;5.702;2024-02-21T00:32:57;26.17;;;8.55;;
42332;SDS011;27984;51.476;5.702;2024-02-21T00:35:23;26.95;;;8.95;;
42332;SDS011;27984;51.476;5.702;2024-02-21T00:37:49;24.55;;;8.55;;
42332;SDS011;27984;51.476;5.702;2024-02-21T00:40:15;24.33;;;8.00;;
42332;SDS011;27984;51.476;5.702;2024-02-21T00:42:45;24.85;;;8.45;;
42332;SDS011;27984;51.476;5.702;2024-02-21T00:45:11;25.65;;;8.50;;
42332;SDS011;27984;51.476;5.702;2024-02-21T00:47:36;29.10;;;7.97;;
42332;SDS011;27984;51.476;5.702;2024-02-21T00:50:02;31.13;;;9.25;;
42332;SDS011;27984;51.476;5.702;2024-02-21T00:52:28;25.58;;;8.45;;
42332;SDS011;27984;51.476;5.702;2024-02-21T00:54:54;23.75;;;7.85;;
42332;SDS011;27984;51.476;5.702;2024-02-21T00:57:20;30.10;;;8.73;;
42332;SDS011;27984;51.476;5.702;2024-02-21T00:59:46;24.20;;;8.35;;
42332;SDS011;27984;51.476;5.702;2024-02-21T01:02:12;24.52;;;8.75;;
42332;SDS011;27984;51.476;5.702;2024-02-21T01:04:38;23.95;;;8.07;;
42332;SDS011;27984;51.476;5.702;2024-02-21T01:07:04;28.10;;;8.32;;
42332;SDS011;27984;51.476;5.702;2024-02-21T01:09:30;20.25;;;8.48;;
42332;SDS011;27984;51.476;5.702;2024-02-21T01:11:56;24.75;;;9.00;;
42332;SDS011;27984;51.476;5.702;2024-02-21T01:14:22;23.52;;;8.20;;
42332;SDS011;27984;51.476;5.702;2024-02-21T01:16:48;26.15;;;8.45;;
42332;SDS011;27984;51.476;5.702;2024-02-21T01:19:14;25.25;;;7.90;;
42332;SDS011;27984;51.476;5.702;2024-02-21T01:21:40;23.15;;;8.02;;
42332;SDS011;27984;51.476;5.702;2024-02-21T01:24:06;26.27;;;8.07;;
42332;SDS011;27984;51.476;5.702;2024-02-21T01:26:32;19.75;;;7.45;;
42332;SDS011;27984;51.476;5.702;2024-02-21T01:28:58;24.23;;;7.82;;
42332;SDS011;27984;51.476;5.702;2024-02-21T01:31:24;26.38;;;7.50;;
42332;SDS011;27984;51.476;5.702;2024-02-21T01:33:50;25.05;;;8.82;;
42332;SDS011;27984;51.476;5.702;2024-02-21T01:36:16;18.30;;;6.88;;
42332;SDS011;27984;51.476;5.702;2024-02-21T01:38:42;19.27;;;6.78;;
42332;SDS011;27984;51.476;5.702;2024-02-21T01:41:07;28.77;;;8.23;;
42332;SDS011;27984;51.476;5.702;2024-02-21T01:43:33;18.85;;;7.32;;
42332;SDS011;27984;51.476;5.702;2024-02-21T01:46:00;21.33;;;7.60;;
42332;SDS011;27984;51.476;5.702;2024-02-21T01:48:27;21.25;;;7.68;;
42332;SDS011;27984;51.476;5.702;2024-02-21T01:50:53;19.67;;;8.32;;
42332;SDS011;27984;51.476;5.702;2024-02-21T01:53:21;20.50;;;7.38;;
42332;SDS011;27984;51.476;5.702;2024-02-21T01:55:47;25.40;;;7.63;;
42332;SDS011;27984;51.476;5.702;2024-02-21T01:58:13;19.67;;;7.07;;
42332;SDS011;27984;51.476;5.702;2024-02-21T02:00:40;22.83;;;7.60;;
42332;SDS011;27984;51.476;5.702;2024-02-21T02:03:08;18.10;;;7.60;;
42332;SDS011;27984;51.476;5.702;2024-02-21T02:05:35;20.33;;;7.57;;
42332;SDS011;27984;51.476;5.702;2024-02-21T02:08:01;15.68;;;7.35;;
42332;SDS011;27984;51.476;5.702;2024-02-21T02:10:27;20.40;;;7.63;;
42332;SDS011;27984;51.476;5.702;2024-02-21T02:12:53;20.73;;;7.53;;
42332;SDS011;27984;51.476;5.702;2024-02-21T02:15:19;21.27;;;7.60;;
42332;SDS011;27984;51.476;5.702;2024-02-21T02:17:45;18.27;;;7.10;;
42332;SDS011;27984;51.476;5.702;2024-02-21T02:20:11;19.42;;;7.40;;
42332;SDS011;27984;51.476;5.702;2024-02-21T02:22:37;16.80;;;7.00;;
42332;SDS011;27984;51.476;5.702;2024-02-21T02:25:04;18.25;;;6.90;;
42332;SDS011;27984;51.476;5.702;2024-02-21T02:27:31;18.25;;;6.65;;
42332;SDS011;27984;51.476;5.702;2024-02-21T02:29:57;20.15;;;7.40;;
42332;SDS011;27984;51.476;5.702;2024-02-21T02:32:23;17.95;;;6.25;;
42332;SDS011;27984;51.476;5.702;2024-02-21T02:34:49;15.45;;;5.93;;
42332;SDS011;27984;51.476;5.702;2024-02-21T02:37:15;14.50;;;6.25;;
42332;SDS011;27984;51.476;5.702;2024-02-21T02:39:41;24.98;;;6.80;;
42332;SDS011;27984;51.476;5.702;2024-02-21T02:42:07;17.15;;;6.40;;
42332;SDS011;27984;51.476;5.702;2024-02-21T02:44:33;18.70;;;6.53;;
42332;SDS011;27984;51.476;5.702;2024-02-21T02:46:59;20.90;;;6.60;;
42332;SDS011;27984;51.476;5.702;2024-02-21T02:49:25;19.17;;;6.53;;
42332;SDS011;27984;51.476;5.702;2024-02-21T02:51:51;18.58;;;6.60;;
42332;SDS011;27984;51.476;5.702;2024-02-21T02:54:17;19.00;;;7.35;;
42332;SDS011;27984;51.476;5.702;2024-02-21T02:56:43;16.15;;;6.30;;
42332;SDS011;27984;51.476;5.702;2024-02-21T02:59:09;20.70;;;6.88;;
42332;SDS011;27984;51.476;5.702;2024-02-21T03:01:35;17.30;;;6.57;;
42332;SDS011;27984;51.476;5.702;2024-02-21T03:04:01;17.75;;;6.57;;
42332;SDS011;27984;51.476;5.702;2024-02-21T03:06:28;16.38;;;6.50;;
42332;SDS011;27984;51.476;5.702;2024-02-21T03:08:53;17.40;;;7.13;;
42332;SDS011;27984;51.476;5.702;2024-02-21T03:11:19;20.38;;;6.57;;
42332;SDS011;27984;51.476;5.702;2024-02-21T03:13:48;20.08;;;6.35;;
42332;SDS011;27984;51.476;5.702;2024-02-21T03:16:16;19.73;;;7.47;;
42332;SDS011;27984;51.476;5.702;2024-02-21T03:18:42;17.85;;;6.60;;
42332;SDS011;27984;51.476;5.702;2024-02-21T03:21:08;16.35;;;7.15;;
42332;SDS011;27984;51.476;5.702;2024-02-21T03:23:34;15.60;;;7.07;;
42332;SDS011;27984;51.476;5.702;2024-02-21T03:26:00;20.52;;;6.45;;
42332;SDS011;27984;51.476;5.702;2024-02-21T03:28:26;20.30;;;6.68;;
42332;SDS011;27984;51.476;5.702;2024-02-21T03:30:52;18.80;;;7.30;;
42332;SDS011;27984;51.476;5.702;2024-02-21T03:33:18;16.27;;;6.97;;
42332;SDS011;27984;51.476;5.702;2024-02-21T03:35:45;15.85;;;7.70;;
42332;SDS011;27984;51.476;5.702;2024-02-21T03:38:11;23.90;;;8.27;;
42332;SDS011;27984;51.476;5.702;2024-02-21T03:40:37;22.33;;;7.82;;
42332;SDS011;27984;51.476;5.702;2024-02-21T03:43:04;19.83;;;8.07;;
42332;SDS011;27984;51.476;5.702;2024-02-21T03:45:30;18.90;;;8.77;;
42332;SDS011;27984;51.476;5.702;2024-02-21T03:47:56;20.58;;;8.15;;
42332;SDS011;27984;51.476;5.702;2024-02-21T03:50:22;21.65;;;8.82;;
42332;SDS011;27984;51.476;5.702;2024-02-21T03:52:50;20.60;;;8.80;;
42332;SDS011;27984;51.476;5.702;2024-02-21T03:55:16;23.73;;;9.38;;
42332;SDS011;27984;51.476;5.702;2024-02-21T03:57:42;18.50;;;8.73;;
42332;SDS011;27984;51.476;5.702;2024-02-21T04:00:08;20.77;;;9.43;;
42332;SDS011;27984;51.476;5.702;2024-02-21T04:02:35;24.48;;;9.98;;
42332;SDS011;27984;51.476;5.702;2024-02-21T04:05:01;23.55;;;9.50;;
42332;SDS011;27984;51.476;5.702;2024-02-21T04:07:27;29.38;;;9.88;;
42332;SDS011;27984;51.476;5.702;2024-02-21T04:09:53;26.27;;;9.90;;
42332;SDS011;27984;51.476;5.702;2024-02-21T04:12:19;25.42;;;10.32;;
42332;SDS011;27984;51.476;5.702;2024-02-21T04:14:46;22.77;;;9.98;;
42332;SDS011;27984;51.476;5.702;2024-02-21T04:17:11;26.40;;;10.93;;
42332;SDS011;27984;51.476;5.702;2024-02-21T04:19:37;20.17;;;10.25;;
42332;SDS011;27984;51.476;5.702;2024-02-21T04:22:03;28.52;;;10.32;;
42332;SDS011;27984;51.476;5.702;2024-02-21T04:24:29;30.17;;;10.30;;
42332;SDS011;27984;51.476;5.702;2024-02-21T04:26:55;26.63;;;9.60;;
42332;SDS011;27984;51.476;5.702;2024-02-21T04:29:21;21.48;;;9.48;;
42332;SDS011;27984;51.476;5.702;2024-02-21T04:31:48;26.13;;;10.05;;
42332;SDS011;27984;51.476;5.702;2024-02-21T04:34:14;20.73;;;9.75;;
42332;SDS011;27984;51.476;5.702;2024-02-21T04:36:40;23.83;;;10.07;;
42332;SDS011;27984;51.476;5.702;2024-02-21T04:39:06;23.77;;;9.52;;
42332;SDS011;27984;51.476;5.702;2024-02-21T04:41:32;23.58;;;9.80;;
42332;SDS011;27984;51.476;5.702;2024-02-21T04:43:58;25.83;;;10.63;;
42332;SDS011;27984;51.476;5.702;2024-02-21T04:46:24;20.55;;;9.82;;
42332;SDS011;27984;51.476;5.702;2024-02-21T04:48:50;24.98;;;9.77;;
42332;SDS011;27984;51.476;5.702;2024-02-21T04:51:16;21.13;;;10.00;;
42332;SDS011;27984;51.476;5.702;2024-02-21T04:53:42;24.10;;;10.43;;
42332;SDS011;27984;51.476;5.702;2024-02-21T04:56:08;23.95;;;10.07;;
42332;SDS011;27984;51.476;5.702;2024-02-21T04:58:37;20.45;;;10.20;;
42332;SDS011;27984;51.476;5.702;2024-02-21T05:01:04;21.45;;;9.90;;
42332;SDS011;27984;51.476;5.702;2024-02-21T05:03:30;22.92;;;10.05;;
42332;SDS011;27984;51.476;5.702;2024-02-21T05:05:56;27.20;;;10.98;;
42332;SDS011;27984;51.476;5.702;2024-02-21T05:08:22;24.27;;;10.75;;
42332;SDS011;27984;51.476;5.702;2024-02-21T05:10:48;20.40;;;10.15;;
42332;SDS011;27984;51.476;5.702;2024-02-21T05:13:14;29.05;;;10.05;;
42332;SDS011;27984;51.476;5.702;2024-02-21T05:15:40;27.10;;;11.13;;
42332;SDS011;27984;51.476;5.702;2024-02-21T05:18:06;23.90;;;10.35;;
42332;SDS011;27984;51.476;5.702;2024-02-21T05:20:32;22.40;;;10.60;;
42332;SDS011;27984;51.476;5.702;2024-02-21T05:22:59;26.25;;;10.80;;
42332;SDS011;27984;51.476;5.702;2024-02-21T05:25:24;24.80;;;10.15;;
42332;SDS011;27984;51.476;5.702;2024-02-21T05:27:51;25.67;;;10.05;;
42332;SDS011;27984;51.476;5.702;2024-02-21T05:30:20;22.17;;;10.07;;
42332;SDS011;27984;51.476;5.702;2024-02-21T05:32:46;22.30;;;9.60;;
42332;SDS011;27984;51.476;5.702;2024-02-21T05:35:12;23.73;;;10.20;;
42332;SDS011;27984;51.476;5.702;2024-02-21T05:37:38;22.30;;;9.82;;
42332;SDS011;27984;51.476;5.702;2024-02-21T05:40:05;21.58;;;9.52;;
42332;SDS011;27984;51.476;5.702;2024-02-21T05:42:31;22.35;;;9.10;;
42332;SDS011;27984;51.476;5.702;2024-02-21T05:44:57;17.90;;;9.30;;
42332;SDS011;27984;51.476;5.702;2024-02-21T05:47:23;19.80;;;9.15;;
42332;SDS011;27984;51.476;5.702;2024-02-21T05:49:49;22.58;;;9.55;;
42332;SDS011;27984;51.476;5.702;2024-02-21T05:52:18;21.52;;;9.43;;
42332;SDS011;27984;51.476;5.702;2024-02-21T05:54:44;19.20;;;9.52;;
42332;SDS011;27984;51.476;5.702;2024-02-21T05:57:10;23.58;;;9.70;;
42332;SDS011;27984;51.476;5.702;2024-02-21T05:59:38;23.00;;;8.98;;
42332;SDS011;27984;51.476;5.702;2024-02-21T06:02:05;22.92;;;8.70;;
42332;SDS011;27984;51.476;5.702;2024-02-21T06:04:31;23.23;;;8.68;;
42332;SDS011;27984;51.476;5.702;2024-02-21T06:06:57;23.13;;;9.18;;
42332;SDS011;27984;51.476;5.702;2024-02-21T06:09:23;23.92;;;8.50;;
42332;SDS011;27984;51.476;5.702;2024-02-21T06:11:49;19.50;;;8.82;;
42332;SDS011;27984;51.476;5.702;2024-02-21T06:14:15;21.45;;;9.45;;
42332;SDS011;27984;51.476;5.702;2024-02-21T06:16:41;17.83;;;8.65;;
42332;SDS011;27984;51.476;5.702;2024-02-21T06:19:07;24.15;;;9.07;;
42332;SDS011;27984;51.476;5.702;2024-02-21T06:21:33;18.90;;;8.70;;
42332;SDS011;27984;51.476;5.702;2024-02-21T06:23:58;20.23;;;8.75;;
42332;SDS011;27984;51.476;5.702;2024-02-21T06:26:24;22.15;;;9.32;;
42332;SDS011;27984;51.476;5.702;2024-02-21T06:28:51;19.75;;;8.25;;
42332;SDS011;27984;51.476;5.702;2024-02-21T06:31:17;20.63;;;8.90;;
42332;SDS011;27984;51.476;5.702;2024-02-21T06:33:43;19.08;;;8.70;;
42332;SDS011;27984;51.476;5.702;2024-02-21T06:36:09;23.75;;;9.25;;
42332;SDS011;27984;51.476;5.702;2024-02-21T06:38:35;17.15;;;8.30;;
42332;SDS011;27984;51.476;5.702;2024-02-21T06:41:01;21.17;;;10.00;;
42332;SDS011;27984;51.476;5.702;2024-02-21T06:43:28;23.65;;;9.40;;
42332;SDS011;27984;51.476;5.702;2024-02-21T06:45:54;24.33;;;10.15;;
42332;SDS011;27984;51.476;5.702;2024-02-21T06:48:21;24.88;;;10.02;;
42332;SDS011;27984;51.476;5.702;2024-02-21T06:50:47;20.40;;;9.68;;
42332;SDS011;27984;51.476;5.702;2024-02-21T06:53:13;19.30;;;10.82;;
42332;SDS011;27984;51.476;5.702;2024-02-21T06:55:39;21.50;;;10.57;;
42332;SDS011;27984;51.476;5.702;2024-02-21T06:58:05;22.92;;;10.25;;
42332;SDS011;27984;51.476;5.702;2024-02-21T07:00:36;29.02;;;10.20;;
42332;SDS011;27984;51.476;5.702;2024-02-21T07:03:02;22.20;;;9.82;;
42332;SDS011;27984;51.476;5.702;2024-02-21T07:05:28;25.23;;;10.65;;
42332;SDS011;27984;51.476;5.702;2024-02-21T07:07:54;19.55;;;10.70;;
42332;SDS011;27984;51.476;5.702;2024-02-21T07:10:20;22.60;;;9.90;;
42332;SDS011;27984;51.476;5.702;2024-02-21T07:12:46;23.67;;;10.88;;
42332;SDS011;27984;51.476;5.702;2024-02-21T07:15:13;16.50;;;10.18;;
42332;SDS011;27984;51.476;5.702;2024-02-21T07:17:39;27.55;;;10.57;;
42332;SDS011;27984;51.476;5.702;2024-02-21T07:20:05;21.33;;;10.35;;
42332;SDS011;27984;51.476;5.702;2024-02-21T07:22:34;21.38;;;10.38;;
42332;SDS011;27984;51.476;5.702;2024-02-21T07:25:00;22.77;;;10.55;;
42332;SDS011;27984;51.476;5.702;2024-02-21T07:27:26;20.33;;;10.80;;
42332;SDS011;27984;51.476;5.702;2024-02-21T07:29:55;25.35;;;10.90;;
42332;SDS011;27984;51.476;5.702;2024-02-21T07:32:21;24.00;;;10.48;;
42332;SDS011;27984;51.476;5.702;2024-02-21T07:34:47;20.55;;;10.00;;
42332;SDS011;27984;51.476;5.702;2024-02-21T07:37:13;21.65;;;9.77;;
42332;SDS011;27984;51.476;5.702;2024-02-21T07:39:39;19.63;;;10.38;;
42332;SDS011;27984;51.476;5.702;2024-02-21T07:42:05;22.00;;;10.13;;
42332;SDS011;27984;51.476;5.702;2024-02-21T07:44:31;23.67;;;10.48;;
42332;SDS011;27984;51.476;5.702;2024-02-21T07:46:59;19.77;;;9.95;;
42332;SDS011;27984;51.476;5.702;2024-02-21T07:49:25;21.73;;;9.68;;
42332;SDS011;27984;51.476;5.702;2024-02-21T07:51:51;17.92;;;9.07;;
42332;SDS011;27984;51.476;5.702;2024-02-21T07:54:17;18.17;;;10.25;;
42332;SDS011;27984;51.476;5.702;2024-02-21T07:56:43;16.95;;;8.95;;
42332;SDS011;27984;51.476;5.702;2024-02-21T07:59:09;22.33;;;8.85;;
42332;SDS011;27984;51.476;5.702;2024-02-21T08:01:35;17.33;;;8.88;;
42332;SDS011;27984;51.476;5.702;2024-02-21T08:04:02;14.35;;;8.15;;
42332;SDS011;27984;51.476;5.702;2024-02-21T08:06:29;15.27;;;8.50;;
42332;SDS011;27984;51.476;5.702;2024-02-21T08:08:55;16.42;;;7.70;;
42332;SDS011;27984;51.476;5.702;2024-02-21T08:11:22;15.93;;;7.97;;
42332;SDS011;27984;51.476;5.702;2024-02-21T08:13:48;18.33;;;7.80;;
42332;SDS011;27984;51.476;5.702;2024-02-21T08:16:14;15.23;;;7.75;;
42332;SDS011;27984;51.476;5.702;2024-02-21T08:18:40;14.63;;;7.88;;
42332;SDS011;27984;51.476;5.702;2024-02-21T08:21:08;13.25;;;7.22;;
42332;SDS011;27984;51.476;5.702;2024-02-21T08:23:34;12.57;;;8.10;;
42332;SDS011;27984;51.476;5.702;2024-02-21T08:26:03;13.27;;;7.32;;
42332;SDS011;27984;51.476;5.702;2024-02-21T08:28:29;12.70;;;8.43;;
42332;SDS011;27984;51.476;5.702;2024-02-21T08:30:55;14.48;;;7.38;;
42332;SDS011;27984;51.476;5.702;2024-02-21T08:33:21;14.38;;;7.22;;
42332;SDS011;27984;51.476;5.702;2024-02-21T08:35:50;14.65;;;7.38;;
42332;SDS011;27984;51.476;5.702;2024-02-21T08:38:16;13.45;;;7.57;;
42332;SDS011;27984;51.476;5.702;2024-02-21T08:40:42;13.57;;;6.97;;
42332;SDS011;27984;51.476;5.702;2024-02-21T08:43:08;14.85;;;7.50;;
42332;SDS011;27984;51.476;5.702;2024-02-21T08:45:34;15.38;;;7.47;;
42332;SDS011;27984;51.476;5.702;2024-02-21T08:48:00;14.30;;;7.53;;
42332;SDS011;27984;51.476;5.702;2024-02-21T08:50:26;12.30;;;6.68;;
42332;SDS011;27984;51.476;5.702;2024-02-21T08:52:51;11.93;;;6.38;;
42332;SDS011;27984;51.476;5.702;2024-02-21T08:55:18;14.73;;;7.40;;
42332;SDS011;27984;51.476;5.702;2024-02-21T08:57:44;11.48;;;6.45;;
42332;SDS011;27984;51.476;5.702;2024-02-21T09:00:10;13.73;;;6.85;;
42332;SDS011;27984;51.476;5.702;2024-02-21T09:02:41;13.88;;;7.20;;
42332;SDS011;27984;51.476;5.702;2024-02-21T09:05:10;12.95;;;6.45;;
42332;SDS011;27984;51.476;5.702;2024-02-21T09:07:36;10.48;;;6.70;;
42332;SDS011;27984;51.476;5.702;2024-02-21T09:10:02;12.93;;;6.43;;
42332;SDS011;27984;51.476;5.702;2024-02-21T09:12:28;12.02;;;6.70;;
42332;SDS011;27984;51.476;5.702;2024-02-21T09:14:54;13.35;;;7.20;;
42332;SDS011;27984;51.476;5.702;2024-02-21T09:17:20;14.93;;;7.03;;
42332;SDS011;27984;51.476;5.702;2024-02-21T09:19:47;12.25;;;7.65;;
42332;SDS011;27984;51.476;5.702;2024-02-21T09:22:13;14.98;;;7.97;;
42332;SDS011;27984;51.476;5.702;2024-02-21T09:24:39;15.95;;;9.02;;
42332;SDS011;27984;51.476;5.702;2024-02-21T09:27:05;16.02;;;8.55;;
42332;SDS011;27984;51.476;5.702;2024-02-21T09:29:31;13.95;;;8.43;;
42332;SDS011;27984;51.476;5.702;2024-02-21T09:32:01;15.25;;;8.90;;
42332;SDS011;27984;51.476;5.702;2024-02-21T09:34:27;14.10;;;8.75;;
42332;SDS011;27984;51.476;5.702;2024-02-21T09:36:53;14.27;;;8.75;;
42332;SDS011;27984;51.476;5.702;2024-02-21T09:39:19;12.82;;;7.78;;
42332;SDS011;27984;51.476;5.702;2024-02-21T09:41:47;15.70;;;8.40;;
42332;SDS011;27984;51.476;5.702;2024-02-21T09:44:13;14.90;;;8.70;;
42332;SDS011;27984;51.476;5.702;2024-02-21T09:47:01;11.52;;;7.90;;
42332;SDS011;27984;51.476;5.702;2024-02-21T09:49:31;16.05;;;8.63;;
42332;SDS011;27984;51.476;5.702;2024-02-21T09:51:58;14.65;;;8.25;;
42332;SDS011;27984;51.476;5.702;2024-02-21T09:54:24;16.33;;;8.73;;
42332;SDS011;27984;51.476;5.702;2024-02-21T09:56:50;15.20;;;7.22;;
42332;SDS011;27984;51.476;5.702;2024-02-21T09:59:17;13.77;;;6.97;;
42332;SDS011;27984;51.476;5.702;2024-02-21T10:01:43;12.38;;;6.97;;
42332;SDS011;27984;51.476;5.702;2024-02-21T10:04:09;14.70;;;7.30;;
42332;SDS011;27984;51.476;5.702;2024-02-21T10:06:35;16.48;;;7.72;;
42332;SDS011;27984;51.476;5.702;2024-02-21T10:09:05;15.00;;;7.40;;
42332;SDS011;27984;51.476;5.702;2024-02-21T10:11:32;11.10;;;5.90;;
42332;SDS011;27984;51.476;5.702;2024-02-21T10:14:04;14.63;;;6.65;;
42332;SDS011;27984;51.476;5.702;2024-02-21T10:16:31;12.32;;;6.10;;
42332;SDS011;27984;51.476;5.702;2024-02-21T10:18:58;13.35;;;6.18;;
42332;SDS011;27984;51.476;5.702;2024-02-21T10:21:24;16.13;;;6.47;;
42332;SDS011;27984;51.476;5.702;2024-02-21T10:23:50;13.65;;;5.70;;
42332;SDS011;27984;51.476;5.702;2024-02-21T10:26:17;12.38;;;5.63;;
42332;SDS011;27984;51.476;5.702;2024-02-21T10:28:44;11.25;;;5.80;;
42332;SDS011;27984;51.476;5.702;2024-02-21T10:31:20;11.63;;;5.13;;
42332;SDS011;27984;51.476;5.702;2024-02-21T10:33:53;12.40;;;5.32;;
42332;SDS011;27984;51.476;5.702;2024-02-21T10:36:19;14.82;;;5.22;;
42332;SDS011;27984;51.476;5.702;2024-02-21T10:38:45;10.68;;;5.00;;
42332;SDS011;27984;51.476;5.702;2024-02-21T10:41:12;7.75;;;4.85;;
42332;SDS011;27984;51.476;5.702;2024-02-21T10:43:40;9.45;;;4.85;;
42332;SDS011;27984;51.476;5.702;2024-02-21T10:46:06;10.40;;;5.03;;
42332;SDS011;27984;51.476;5.702;2024-02-21T10:48:43;11.32;;;5.30;;
42332;SDS011;27984;51.476;5.702;2024-02-21T10:53:37;11.88;;;4.90;;
42332;SDS011;27984;51.476;5.702;2024-02-21T10:56:16;10.15;;;4.97;;
42332;SDS011;27984;51.476;5.702;2024-02-21T10:58:46;10.23;;;4.95;;
42332;SDS011;27984;51.476;5.702;2024-02-21T11:01:13;10.63;;;4.72;;
42332;SDS011;27984;51.476;5.702;2024-02-21T11:03:40;7.10;;;4.72;;
42332;SDS011;27984;51.476;5.702;2024-02-21T11:06:07;7.60;;;4.38;;
42332;SDS011;27984;51.476;5.702;2024-02-21T11:08:34;11.15;;;4.60;;
42332;SDS011;27984;51.476;5.702;2024-02-21T11:11:00;9.93;;;4.82;;
42332;SDS011;27984;51.476;5.702;2024-02-21T11:13:30;17.98;;;5.10;;
42332;SDS011;27984;51.476;5.702;2024-02-21T11:16:09;10.88;;;4.53;;
42332;SDS011;27984;51.476;5.702;2024-02-21T11:18:39;12.52;;;4.97;;
42332;SDS011;27984;51.476;5.702;2024-02-21T11:21:05;10.82;;;4.38;;
42332;SDS011;27984;51.476;5.702;2024-02-21T11:23:31;13.35;;;5.38;;
42332;SDS011;27984;51.476;5.702;2024-02-21T11:26:04;10.23;;;4.80;;
42332;SDS011;27984;51.476;5.702;2024-02-21T11:28:30;9.60;;;4.82;;
42332;SDS011;27984;51.476;5.702;2024-02-21T11:31:10;9.30;;;5.00;;
42332;SDS011;27984;51.476;5.702;2024-02-21T11:33:42;11.80;;;4.88;;
42332;SDS011;27984;51.476;5.702;2024-02-21T11:36:08;10.15;;;4.60;;
42332;SDS011;27984;51.476;5.702;2024-02-21T11:38:35;8.85;;;4.38;;
42332;SDS011;27984;51.476;5.702;2024-02-21T11:41:01;10.85;;;4.65;;
42332;SDS011;27984;51.476;5.702;2024-02-21T11:43:27;12.55;;;4.32;;
42332;SDS011;27984;51.476;5.702;2024-02-21T11:45:59;14.10;;;4.80;;
42332;SDS011;27984;51.476;5.702;2024-02-21T11:48:25;10.98;;;4.78;;
42332;SDS011;27984;51.476;5.702;2024-02-21T11:50:52;13.43;;;4.47;;
42332;SDS011;27984;51.476;5.702;2024-02-21T11:53:20;10.77;;;4.18;;
42332;SDS011;27984;51.476;5.702;2024-02-21T11:55:46;13.38;;;4.78;;
42332;SDS011;27984;51.476;5.702;2024-02-21T11:58:12;9.10;;;3.88;;
42332;SDS011;27984;51.476;5.702;2024-02-21T12:00:38;8.55;;;4.20;;
42332;SDS011;27984;51.476;5.702;2024-02-21T12:03:05;10.82;;;4.35;;
42332;SDS011;27984;51.476;5.702;2024-02-21T12:05:31;10.25;;;4.60;;
42332;SDS011;27984;51.476;5.702;2024-02-21T12:07:57;11.02;;;4.32;;
42332;SDS011;27984;51.476;5.702;2024-02-21T12:10:24;12.07;;;4.32;;
42332;SDS011;27984;51.476;5.702;2024-02-21T12:12:51;10.32;;;4.03;;
42332;SDS011;27984;51.476;5.702;2024-02-21T12:15:19;13.50;;;4.70;;
42332;SDS011;27984;51.476;5.702;2024-02-21T12:17:45;10.45;;;4.38;;
42332;SDS011;27984;51.476;5.702;2024-02-21T12:20:11;13.45;;;4.28;;
42332;SDS011;27984;51.476;5.702;2024-02-21T12:22:39;8.98;;;4.55;;
42332;SDS011;27984;51.476;5.702;2024-02-21T12:25:15;8.65;;;4.20;;
42332;SDS011;27984;51.476;5.702;2024-02-21T12:27:43;10.80;;;4.35;;
42332;SDS011;27984;51.476;5.702;2024-02-21T12:30:09;9.65;;;4.03;;
42332;SDS011;27984;51.476;5.702;2024-02-21T12:32:35;10.38;;;4.30;;
42332;SDS011;27984;51.476;5.702;2024-02-21T12:35:01;11.75;;;4.80;;
42332;SDS011;27984;51.476;5.702;2024-02-21T12:37:27;11.80;;;4.15;;
42332;SDS011;27984;51.476;5.702;2024-02-21T12:39:53;14.15;;;4.57;;
42332;SDS011;27984;51.476;5.702;2024-02-21T12:42:19;11.13;;;4.22;;
42332;SDS011;27984;51.476;5.702;2024-02-21T12:44:46;10.35;;;4.10;;
42332;SDS011;27984;51.476;5.702;2024-02-21T12:47:11;10.80;;;4.53;;
42332;SDS011;27984;51.476;5.702;2024-02-21T12:49:38;11.35;;;4.38;;
42332;SDS011;27984;51.476;5.702;2024-02-21T12:52:03;12.07;;;4.63;;
42332;SDS011;27984;51.476;5.702;2024-02-21T12:54:29;11.60;;;4.57;;
42332;SDS011;27984;51.476;5.702;2024-02-21T12:56:56;10.68;;;4.00;;
42332;SDS011;27984;51.476;5.702;2024-02-21T12:59:23;8.32;;;4.13;;
42332;SDS011;27984;51.476;5.702;2024-02-21T13:01:49;10.05;;;4.30;;
42332;SDS011;27984;51.476;5.702;2024-02-21T13:04:15;9.05;;;3.90;;
42332;SDS011;27984;51.476;5.702;2024-02-21T13:06:41;7.18;;;3.65;;
42332;SDS011;27984;51.476;5.702;2024-02-21T13:09:07;9.05;;;4.38;;
42332;SDS011;27984;51.476;5.702;2024-02-21T13:11:34;9.75;;;3.80;;
42332;SDS011;27984;51.476;5.702;2024-02-21T13:14:00;8.80;;;3.95;;
42332;SDS011;27984;51.476;5.702;2024-02-21T13:16:26;7.90;;;4.15;;
42332;SDS011;27984;51.476;5.702;2024-02-21T13:18:52;10.25;;;3.85;;
42332;SDS011;27984;51.476;5.702;2024-02-21T13:21:18;12.30;;;3.95;;
42332;SDS011;27984;51.476;5.702;2024-02-21T13:23:44;10.40;;;4.00;;
42332;SDS011;27984;51.476;5.702;2024-02-21T13:26:10;10.10;;;4.13;;
42332;SDS011;27984;51.476;5.702;2024-02-21T13:28:37;8.80;;;3.42;;
42332;SDS011;27984;51.476;5.702;2024-02-21T13:31:03;7.78;;;3.40;;
42332;SDS011;27984;51.476;5.702;2024-02-21T13:33:29;9.45;;;3.50;;
42332;SDS011;27984;51.476;5.702;2024-02-21T13:35:55;8.55;;;3.50;;
42332;SDS011;27984;51.476;5.702;2024-02-21T13:38:21;7.78;;;3.05;;
42332;SDS011;27984;51.476;5.702;2024-02-21T13:40:49;9.52;;;3.58;;
42332;SDS011;27984;51.476;5.702;2024-02-21T13:43:15;11.25;;;3.75;;
42332;SDS011;27984;51.476;5.702;2024-02-21T13:45:45;6.38;;;3.10;;
42332;SDS011;27984;51.476;5.702;2024-02-21T13:48:20;8.43;;;3.10;;
42332;SDS011;27984;51.476;5.702;2024-02-21T13:50:46;11.00;;;3.05;;
42332;SDS011;27984;51.476;5.702;2024-02-21T13:53:12;8.15;;;2.72;;
42332;SDS011;27984;51.476;5.702;2024-02-21T13:55:38;7.82;;;3.20;;
42332;SDS011;27984;51.476;5.702;2024-02-21T13:58:05;10.57;;;3.25;;
42332;SDS011;27984;51.476;5.702;2024-02-21T14:00:33;11.88;;;3.30;;
42332;SDS011;27984;51.476;5.702;2024-02-21T14:03:01;8.27;;;3.28;;
42332;SDS011;27984;51.476;5.702;2024-02-21T14:05:27;8.68;;;3.20;;
42332;SDS011;27984;51.476;5.702;2024-02-21T14:07:53;7.78;;;2.95;;
42332;SDS011;27984;51.476;5.702;2024-02-21T14:10:19;8.98;;;3.22;;
42332;SDS011;27984;51.476;5.702;2024-02-21T14:12:45;9.95;;;3.58;;
42332;SDS011;27984;51.476;5.702;2024-02-21T14:15:13;7.20;;;3.13;;
42332;SDS011;27984;51.476;5.702;2024-02-21T14:17:39;8.55;;;3.05;;
42332;SDS011;27984;51.476;5.702;2024-02-21T14:20:06;6.60;;;3.25;;
42332;SDS011;27984;51.476;5.702;2024-02-21T14:22:32;8.35;;;3.00;;
42332;SDS011;27984;51.476;5.702;2024-02-21T14:24:59;6.53;;;3.00;;
42332;SDS011;27984;51.476;5.702;2024-02-21T14:27:28;5.20;;;2.63;;
42332;SDS011;27984;51.476;5.702;2024-02-21T14:29:54;7.78;;;3.10;;
42332;SDS011;27984;51.476;5.702;2024-02-21T14:32:20;8.27;;;2.75;;